createdAt,value
2019-01-20T00:02:07.439Z,-4.30
2019-01-20T00:04:37.083Z,-4.30
2019-01-20T00:07:08.778Z,-4.30
2019-01-20T00:09:38.053Z,-4.30
2019-01-20T00:12:08.223Z,-4.30
2019-01-20T00:14:37.527Z,-4.30
2019-01-20T00:17:07.719Z,-4.30
2019-01-20T00:19:37.011Z,-4.30
2019-01-20T00:22:06.550Z,-4.30
2019-01-20T00:24:35.857Z,-4.30
2019-01-20T00:27:05.395Z,-4.30
2019-01-20T00:29:34.771Z,-4.30
2019-01-20T00:32:04.051Z,-4.30
2019-01-20T00:34:33.344Z,-4.30
2019-01-20T00:37:03.035Z,-4.30
2019-01-20T00:39:32.423Z,-4.20
2019-01-20T00:42:01.758Z,-4.30
2019-01-20T00:44:33.367Z,-4.30
2019-01-20T00:47:04.013Z,-4.30
2019-01-20T00:49:33.722Z,-4.20
2019-01-20T00:52:05.475Z,-4.20
2019-01-20T00:54:34.825Z,-4.20
2019-01-20T00:57:04.223Z,-4.20
2019-01-20T00:59:35.183Z,-4.10
2019-01-20T01:02:05.539Z,-4.20
2019-01-20T01:04:34.763Z,-4.10
2019-01-20T01:07:04.691Z,-4.20
2019-01-20T01:09:34.085Z,-4.10
2019-01-20T01:12:03.570Z,-4.10
2019-01-20T01:14:32.919Z,-4.10
2019-01-20T01:17:02.231Z,-4.10
2019-01-20T01:19:31.530Z,-4.10
2019-01-20T01:22:01.045Z,-4.00
2019-01-20T01:24:30.907Z,-4.00
2019-01-20T01:27:02.246Z,-4.00
2019-01-20T01:29:31.438Z,-4.00
2019-01-20T01:32:01.919Z,-4.00
2019-01-20T01:34:31.643Z,-4.00
2019-01-20T01:37:01.029Z,-4.00
2019-01-20T01:39:30.321Z,-4.00
2019-01-20T01:41:59.779Z,-4.00
2019-01-20T01:44:29.095Z,-4.00
2019-01-20T01:46:58.509Z,-4.00
2019-01-20T01:49:28.518Z,-4.00
2019-01-20T01:51:57.908Z,-4.00
2019-01-20T01:54:27.258Z,-4.00
2019-01-20T01:56:56.568Z,-4.00
2019-01-20T01:59:25.804Z,-4.00
2019-01-20T02:01:55.007Z,-4.00
2019-01-20T02:04:24.359Z,-4.00
2019-01-20T02:06:53.623Z,-4.00
2019-01-20T02:09:24.838Z,-4.00
2019-01-20T02:11:54.084Z,-4.00
2019-01-20T02:14:23.452Z,-4.00
2019-01-20T02:16:52.747Z,-4.00
2019-01-20T02:19:22.103Z,-4.00
2019-01-20T02:21:51.325Z,-4.00
2019-01-20T02:24:20.594Z,-4.00
2019-01-20T02:26:49.871Z,-4.00
2019-01-20T02:29:19.083Z,-4.00
2019-01-20T02:31:48.408Z,-4.00
2019-01-20T02:34:17.711Z,-4.00
2019-01-20T02:36:47.095Z,-4.00
2019-01-20T02:39:16.751Z,-4.00
2019-01-20T02:41:45.966Z,-4.00
2019-01-20T02:44:15.240Z,-4.00
2019-01-20T02:46:44.455Z,-4.00
2019-01-20T02:49:15.228Z,-4.00
2019-01-20T02:51:44.564Z,-4.00
2019-01-20T02:54:13.966Z,-4.00
2019-01-20T02:56:43.276Z,-4.00
2019-01-20T02:59:12.499Z,-3.90
2019-01-20T03:01:42.393Z,-3.90
2019-01-20T03:04:11.795Z,-3.90
2019-01-20T03:06:41.063Z,-3.90
2019-01-20T03:09:10.579Z,-3.90
2019-01-20T03:11:40.408Z,-4.00
2019-01-20T03:14:09.651Z,-4.00
2019-01-20T03:16:38.882Z,-4.00
2019-01-20T03:19:08.347Z,-4.00
2019-01-20T03:21:37.647Z,-4.00
2019-01-20T03:24:06.845Z,-4.10
2019-01-20T03:26:36.408Z,-4.10
2019-01-20T03:29:05.793Z,-4.10
2019-01-20T03:31:35.569Z,-4.10
2019-01-20T03:34:04.804Z,-4.10
2019-01-20T03:36:34.086Z,-4.10
2019-01-20T03:39:04.036Z,-4.10
2019-01-20T03:41:33.307Z,-4.20
2019-01-20T03:44:02.733Z,-4.20
2019-01-20T03:46:32.367Z,-4.20
2019-01-20T03:49:01.726Z,-4.20
2019-01-20T03:51:31.076Z,-4.20
2019-01-20T03:54:00.409Z,-4.30
2019-01-20T03:56:29.670Z,-4.30
2019-01-20T03:58:58.999Z,-4.30
2019-01-20T04:01:28.323Z,-4.30
2019-01-20T04:03:57.539Z,-4.30
2019-01-20T04:06:26.906Z,-4.40
2019-01-20T04:08:56.255Z,-4.40
2019-01-20T04:11:25.559Z,-4.40
2019-01-20T04:13:55.274Z,-4.40
2019-01-20T04:16:24.565Z,-4.40
2019-01-20T04:18:53.856Z,-4.40
2019-01-20T04:21:23.172Z,-4.50
2019-01-20T04:23:52.438Z,-4.50
2019-01-20T04:26:21.799Z,-4.50
2019-01-20T04:28:50.995Z,-4.50
2019-01-20T04:31:22.043Z,-4.50
2019-01-20T04:33:51.595Z,-4.50
2019-01-20T04:36:20.859Z,-4.50
2019-01-20T04:38:50.503Z,-4.50
2019-01-20T04:41:20.198Z,-4.50
2019-01-20T04:43:49.584Z,-4.50
2019-01-20T04:46:18.837Z,-4.50
2019-01-20T04:48:49.575Z,-4.50
2019-01-20T04:51:21.503Z,-4.50
2019-01-20T04:53:50.939Z,-4.50
2019-01-20T04:56:20.373Z,-4.40
2019-01-20T04:58:49.647Z,-4.40
2019-01-20T05:01:18.839Z,-4.40
2019-01-20T05:03:48.135Z,-4.40
2019-01-20T05:06:17.649Z,-4.30
2019-01-20T05:08:46.912Z,-4.40
2019-01-20T05:11:16.128Z,-4.40
2019-01-20T05:13:45.411Z,-4.30
2019-01-20T05:16:14.702Z,-4.40
2019-01-20T05:18:43.935Z,-4.40
2019-01-20T05:21:12.434Z,-4.50
2019-01-20T05:23:41.791Z,-4.40
2019-01-20T05:26:11.103Z,-4.40
2019-01-20T05:28:40.319Z,-4.50
2019-01-20T05:31:09.642Z,-4.40
2019-01-20T05:33:39.209Z,-4.40
2019-01-20T05:36:08.556Z,-4.40
2019-01-20T05:38:37.759Z,-4.40
2019-01-20T05:41:07.044Z,-4.30
2019-01-20T05:43:36.256Z,-4.40
2019-01-20T05:46:06.448Z,-4.30
2019-01-20T05:48:36.175Z,-4.30
2019-01-20T05:51:06.651Z,-4.30
2019-01-20T05:53:36.011Z,-4.30
2019-01-20T05:56:05.413Z,-4.30
2019-01-20T05:58:34.618Z,-4.30
2019-01-20T06:01:04.831Z,-4.30
2019-01-20T06:03:34.022Z,-4.30
2019-01-20T06:06:04.480Z,-4.30
2019-01-20T06:08:34.364Z,-4.30
2019-01-20T06:11:04.724Z,-4.30
2019-01-20T06:13:34.043Z,-4.30
2019-01-20T06:16:03.340Z,-4.30
2019-01-20T06:18:32.619Z,-4.30
2019-01-20T06:21:01.874Z,-4.30
2019-01-20T06:23:31.199Z,-4.30
2019-01-20T06:26:00.390Z,-4.40
2019-01-20T06:28:29.709Z,-4.40
2019-01-20T06:30:59.105Z,-4.40
2019-01-20T06:33:28.386Z,-4.40
2019-01-20T06:35:57.730Z,-4.30
2019-01-20T06:38:27.316Z,-4.40
2019-01-20T06:40:57.003Z,-4.40
2019-01-20T06:43:26.352Z,-4.30
2019-01-20T06:45:55.974Z,-4.30
2019-01-20T06:48:25.387Z,-4.20
2019-01-20T06:50:54.612Z,-4.30
2019-01-20T06:53:24.209Z,-4.20
2019-01-20T06:55:53.510Z,-4.20
2019-01-20T06:58:22.849Z,-4.20
2019-01-20T07:00:52.155Z,-4.20
2019-01-20T07:03:21.433Z,-4.20
2019-01-20T07:05:58.160Z,-4.20
2019-01-20T07:08:27.647Z,-4.10
2019-01-20T07:10:57.180Z,-4.10
2019-01-20T07:13:26.503Z,-4.10
2019-01-20T07:15:55.933Z,-4.00
2019-01-20T07:18:25.293Z,-4.00
2019-01-20T07:20:55.269Z,-3.90
2019-01-20T07:23:27.515Z,-3.90
2019-01-20T07:25:56.707Z,-3.90
2019-01-20T07:28:26.866Z,-3.90
2019-01-20T07:30:56.166Z,-3.80
2019-01-20T07:33:25.983Z,-3.80
2019-01-20T07:35:55.382Z,-3.80
2019-01-20T07:38:25.718Z,-3.80
2019-01-20T07:40:55.109Z,-3.80
2019-01-20T07:43:24.606Z,-3.80
2019-01-20T07:45:54.680Z,-3.80
2019-01-20T07:48:24.147Z,-3.80
2019-01-20T07:50:55.719Z,-3.70
2019-01-20T07:53:25.021Z,-3.70
2019-01-20T07:55:54.354Z,-3.70
2019-01-20T07:58:24.020Z,-3.70
2019-01-20T08:00:53.616Z,-3.60
2019-01-20T08:03:23.151Z,-3.60
2019-01-20T08:05:53.964Z,-3.60
2019-01-20T08:08:23.190Z,-3.50
2019-01-20T08:10:52.456Z,-3.50
2019-01-20T08:13:24.391Z,-3.50
2019-01-20T08:15:52.820Z,-3.40
2019-01-20T08:18:22.074Z,-3.40
2019-01-20T08:20:51.614Z,-3.30
2019-01-20T08:23:20.984Z,-3.30
2019-01-20T08:25:50.824Z,-3.30
2019-01-20T08:28:20.357Z,-3.20
2019-01-20T08:30:49.761Z,-3.20
2019-01-20T08:33:19.192Z,-3.10
2019-01-20T08:35:48.408Z,-3.10
2019-01-20T08:38:17.704Z,-3.00
2019-01-20T08:40:47.012Z,-3.00
2019-01-20T08:43:16.444Z,-2.90
2019-01-20T08:46:24.927Z,-2.80
2019-01-20T08:48:54.163Z,-2.80
2019-01-20T08:51:23.514Z,-2.80
2019-01-20T08:53:52.894Z,-2.70
2019-01-20T08:56:22.255Z,-2.70
2019-01-20T08:58:51.620Z,-2.70
2019-01-20T09:01:21.174Z,-2.60
2019-01-20T09:03:50.554Z,-2.50
2019-01-20T09:06:21.307Z,-2.60
2019-01-20T09:08:50.599Z,-2.50
2019-01-20T09:11:19.915Z,-2.40
2019-01-20T09:13:50.176Z,-2.40
2019-01-20T09:16:19.399Z,-2.30
2019-01-20T09:18:48.661Z,-2.20
2019-01-20T09:21:18.059Z,-2.20
2019-01-20T09:23:48.640Z,-2.10
2019-01-20T09:26:17.868Z,-2.10
2019-01-20T09:28:48.190Z,-2.20
2019-01-20T09:31:17.463Z,-2.20
2019-01-20T09:33:48.771Z,-2.10
2019-01-20T09:36:17.992Z,-2.00
2019-01-20T09:38:47.297Z,-1.90
2019-01-20T09:41:16.661Z,-1.90
2019-01-20T09:43:47.316Z,-1.90
2019-01-20T09:46:16.800Z,-1.90
2019-01-20T09:48:48.922Z,-1.90
2019-01-20T09:51:18.322Z,-1.80
2019-01-20T09:53:47.583Z,-1.70
2019-01-20T09:56:16.878Z,-1.70
2019-01-20T09:58:46.155Z,-1.80
2019-01-20T10:01:15.448Z,-1.60
2019-01-20T10:03:44.814Z,-1.50
2019-01-20T10:06:14.092Z,-1.40
2019-01-20T10:08:43.427Z,-1.40
2019-01-20T10:11:12.711Z,-1.30
2019-01-20T10:13:42.403Z,-1.30
2019-01-20T10:16:11.694Z,-1.20
2019-01-20T10:18:41.026Z,-1.20
2019-01-20T10:21:10.359Z,-1.10
2019-01-20T10:23:40.421Z,-1.20
2019-01-20T10:26:09.683Z,-1.20
2019-01-20T10:28:38.979Z,-1.10
2019-01-20T10:31:08.200Z,-1.00
2019-01-20T10:33:37.553Z,-1.00
2019-01-20T10:36:07.455Z,-0.90
2019-01-20T10:38:38.742Z,-0.80
2019-01-20T10:41:08.059Z,-1.00
2019-01-20T10:43:38.183Z,-1.00
2019-01-20T10:46:07.491Z,-0.90
2019-01-20T10:48:37.155Z,-1.00
2019-01-20T10:51:06.444Z,-1.00
2019-01-20T10:53:35.847Z,-0.90
2019-01-20T10:56:05.240Z,-0.80
2019-01-20T10:58:34.527Z,-0.80
2019-01-20T11:01:03.850Z,-0.70
2019-01-20T11:03:33.063Z,-0.70
2019-01-20T11:06:02.373Z,-0.60
2019-01-20T11:08:31.640Z,-0.50
2019-01-20T11:11:01.027Z,-0.60
2019-01-20T11:13:30.547Z,-0.60
2019-01-20T11:15:59.822Z,-0.60
2019-01-20T11:18:30.015Z,-0.60
2019-01-20T11:20:59.339Z,-0.60
2019-01-20T11:23:29.776Z,-0.60
2019-01-20T11:25:59.156Z,-0.60
2019-01-20T11:28:30.596Z,-0.60
2019-01-20T11:30:59.888Z,-0.60
2019-01-20T11:33:29.207Z,-0.50
2019-01-20T11:35:58.769Z,-0.40
2019-01-20T11:38:29.883Z,-0.30
2019-01-20T11:40:59.138Z,-0.30
2019-01-20T11:43:28.488Z,-0.30
2019-01-20T11:45:57.867Z,-0.20
2019-01-20T11:48:27.075Z,-0.20
2019-01-20T11:50:56.542Z,0.00
2019-01-20T11:53:25.864Z,0.10
2019-01-20T11:55:55.243Z,0.20
2019-01-20T11:58:24.447Z,0.20
2019-01-20T12:00:56.274Z,0.20
2019-01-20T12:03:25.470Z,0.10
2019-01-20T12:05:54.788Z,0.10
2019-01-20T12:08:30.413Z,0.20
2019-01-20T12:10:55.003Z,0.30
2019-01-20T12:13:30.403Z,0.20
2019-01-20T12:15:59.779Z,0.20
2019-01-20T12:18:29.221Z,0.30
2019-01-20T12:20:58.510Z,0.40
2019-01-20T12:23:27.815Z,0.40
2019-01-20T12:25:57.090Z,0.50
2019-01-20T12:28:26.366Z,0.50
2019-01-20T12:30:55.674Z,0.50
2019-01-20T12:33:24.883Z,0.40
2019-01-20T12:35:54.179Z,0.40
2019-01-20T13:07:37.509Z,0.60
2019-01-20T13:10:11.208Z,0.50
2019-01-20T13:12:40.711Z,0.50
2019-01-20T13:15:12.171Z,0.60
2019-01-20T13:17:41.479Z,0.60
2019-01-20T13:20:15.035Z,0.60
2019-01-20T13:22:44.338Z,0.70
2019-01-20T13:25:15.771Z,0.60
2019-01-20T13:27:44.976Z,0.60
2019-01-20T13:30:16.923Z,0.60
2019-01-20T13:32:46.143Z,0.60
2019-01-20T13:35:16.326Z,0.60
2019-01-20T13:37:48.435Z,0.50
2019-01-20T13:40:33.335Z,0.60
2019-01-20T13:43:02.684Z,0.50
2019-01-20T13:45:31.963Z,0.40
2019-01-20T13:48:01.208Z,0.50
2019-01-20T13:50:30.502Z,0.60
2019-01-20T13:52:59.944Z,0.60
2019-01-20T13:55:29.243Z,0.60
2019-01-20T13:58:00.640Z,0.60
2019-01-20T14:00:29.999Z,0.60
2019-01-20T14:02:59.279Z,0.60
2019-01-20T14:05:28.612Z,0.60
2019-01-20T14:07:57.896Z,0.60
2019-01-20T14:10:27.681Z,0.50
2019-01-20T14:12:56.943Z,0.40
2019-01-20T14:15:26.130Z,0.50
2019-01-20T14:17:55.477Z,0.40
2019-01-20T14:20:24.798Z,0.50
2019-01-20T14:22:54.011Z,0.50
2019-01-20T14:25:24.450Z,0.50
2019-01-20T14:27:54.204Z,0.50
2019-01-20T14:30:28.447Z,0.50
2019-01-20T14:32:57.770Z,0.50
2019-01-20T14:35:27.303Z,0.50
2019-01-20T14:37:56.633Z,0.50
2019-01-20T14:40:26.003Z,0.50
2019-01-20T14:42:55.215Z,0.40
2019-01-20T14:45:24.574Z,0.40
2019-01-20T14:47:53.915Z,0.40
2019-01-20T14:50:24.685Z,0.40
2019-01-20T14:52:54.236Z,0.40
2019-01-20T14:55:25.832Z,0.40
2019-01-20T14:57:56.701Z,0.30
2019-01-20T15:00:31.409Z,0.20
2019-01-20T15:03:00.803Z,0.10
2019-01-20T15:05:30.295Z,0.10
2019-01-20T15:07:59.615Z,0.00
2019-01-20T15:10:29.229Z,0.00
2019-01-20T15:12:58.542Z,-0.10
2019-01-20T15:15:31.050Z,-0.10
2019-01-20T15:18:00.727Z,-0.10
2019-01-20T15:20:29.955Z,-0.20
2019-01-20T15:22:59.154Z,-0.20
2019-01-20T15:25:30.024Z,-0.20
2019-01-20T15:27:59.368Z,-0.20
2019-01-20T15:30:30.128Z,-0.20
2019-01-20T15:33:03.071Z,-0.30
2019-01-20T15:35:32.683Z,-0.30
2019-01-20T15:38:02.048Z,-0.30
2019-01-20T15:40:31.450Z,-0.30
2019-01-20T15:43:00.840Z,-0.40
2019-01-20T15:45:30.700Z,-0.40
2019-01-20T15:48:00.028Z,-0.40
2019-01-20T15:50:30.853Z,-0.50
2019-01-20T15:53:01.842Z,-0.50
2019-01-20T15:55:31.486Z,-0.40
2019-01-20T15:58:00.942Z,-0.50
2019-01-20T16:00:31.575Z,-0.50
2019-01-20T16:03:00.916Z,-0.50
2019-01-20T16:05:30.824Z,-0.50
2019-01-20T16:08:00.122Z,-0.50
2019-01-20T16:10:29.363Z,-0.60
2019-01-20T16:12:58.718Z,-0.60
2019-01-20T16:15:30.827Z,-0.60
2019-01-20T16:18:00.168Z,-0.60
2019-01-20T16:20:30.980Z,-0.60
2019-01-20T16:23:02.176Z,-0.70
2019-01-20T16:25:33.660Z,-0.80
2019-01-20T16:28:05.901Z,-0.80
2019-01-20T16:30:37.367Z,-0.70
2019-01-20T16:33:08.407Z,-0.80
2019-01-20T16:35:37.723Z,-0.80
2019-01-20T16:38:10.938Z,-0.80
2019-01-20T16:40:40.377Z,-0.80
2019-01-20T16:43:09.664Z,-0.90
2019-01-20T16:45:45.084Z,-0.90
2019-01-20T16:48:14.436Z,-0.90
2019-01-20T16:50:43.822Z,-0.90
2019-01-20T16:53:13.051Z,-0.90
2019-01-20T16:55:43.562Z,-1.00
2019-01-20T16:58:12.911Z,-1.00
2019-01-20T17:00:44.140Z,-1.00
2019-01-20T17:03:13.631Z,-1.10
2019-01-20T17:05:43.031Z,-1.10
2019-01-20T17:08:12.419Z,-1.10
2019-01-20T17:10:43.140Z,-1.10
2019-01-20T17:13:12.908Z,-1.20
2019-01-20T17:15:48.683Z,-1.20
2019-01-20T17:18:18.051Z,-1.30
2019-01-20T17:20:49.334Z,-1.30
2019-01-20T17:23:18.707Z,-1.40
2019-01-20T17:25:48.348Z,-1.40
2019-01-20T17:28:17.836Z,-1.40
2019-01-20T17:30:47.195Z,-1.50
2019-01-20T17:33:17.590Z,-1.60
2019-01-20T17:35:47.034Z,-1.60
2019-01-20T17:38:16.386Z,-1.70
2019-01-20T17:40:45.738Z,-1.70
2019-01-20T17:43:19.567Z,-1.70
2019-01-20T17:45:50.033Z,-1.80
2019-01-20T17:48:19.799Z,-1.80
2019-01-20T17:50:49.227Z,-1.80
2019-01-20T17:53:18.757Z,-1.90
2019-01-20T17:55:48.287Z,-2.00
2019-01-20T17:58:18.434Z,-2.00
2019-01-20T18:00:50.805Z,-2.10
2019-01-20T18:03:20.339Z,-2.10
2019-01-20T18:05:50.687Z,-2.10
2019-01-20T18:08:19.975Z,-2.20
2019-01-20T18:10:49.320Z,-2.20
2019-01-20T18:13:18.887Z,-2.20
2019-01-20T18:15:54.448Z,-2.30
2019-01-20T18:18:19.901Z,-2.30
2019-01-20T18:20:49.872Z,-2.30
2019-01-20T18:23:19.316Z,-2.40
2019-01-20T18:25:48.786Z,-2.40
2019-01-20T18:28:18.170Z,-2.40
2019-01-20T18:30:47.539Z,-2.40
2019-01-20T18:33:17.665Z,-2.50
2019-01-20T18:35:47.107Z,-2.50
2019-01-20T18:38:16.610Z,-2.50
2019-01-20T18:40:46.058Z,-2.60
2019-01-20T18:43:15.549Z,-2.60
2019-01-20T18:45:45.008Z,-2.70
2019-01-20T18:48:14.667Z,-2.70
2019-01-20T18:50:45.307Z,-2.80
2019-01-20T18:53:14.890Z,-2.80
2019-01-20T18:55:44.447Z,-2.80
2019-01-20T18:58:13.881Z,-2.90
2019-01-20T19:00:46.165Z,-3.00
2019-01-20T19:03:15.682Z,-3.00
2019-01-20T19:05:45.149Z,-3.00
2019-01-20T19:08:14.642Z,-3.10
2019-01-20T19:10:44.055Z,-3.10
2019-01-20T19:20:02.183Z,-3.20
2019-01-20T19:22:31.488Z,-3.20
2019-01-20T19:25:00.765Z,-3.20
2019-01-20T19:27:30.197Z,-3.30
2019-01-20T19:29:59.527Z,-3.30
2019-01-20T19:32:31.586Z,-3.40
2019-01-20T19:35:00.910Z,-3.40
2019-01-20T19:37:30.317Z,-3.50
2019-01-20T19:39:59.691Z,-3.60
2019-01-20T19:42:29.116Z,-3.60
2019-01-20T19:44:58.471Z,-3.60
2019-01-20T19:47:27.880Z,-3.60
2019-01-20T19:49:57.239Z,-3.70
2019-01-20T19:52:28.003Z,-3.70
2019-01-20T19:54:57.454Z,-3.70
2019-01-20T19:57:26.891Z,-3.70
2019-01-20T19:59:56.600Z,-3.80
2019-01-20T20:02:27.048Z,-3.90
2019-01-20T20:04:56.423Z,-3.90
2019-01-20T20:07:25.748Z,-3.90
2019-01-20T20:09:55.120Z,-3.90
2019-01-20T20:12:24.537Z,-4.00
2019-01-20T20:14:53.966Z,-4.00
2019-01-20T20:17:24.110Z,-4.10
2019-01-20T20:19:53.798Z,-4.10
2019-01-20T20:22:23.187Z,-4.20
2019-01-20T20:24:52.528Z,-4.20
2019-01-20T20:27:21.926Z,-4.20
2019-01-20T20:29:51.617Z,-4.20
2019-01-20T20:32:20.955Z,-4.30
2019-01-20T20:34:53.734Z,-4.30
2019-01-20T20:37:21.279Z,-4.30
2019-01-20T20:39:50.647Z,-4.40
2019-01-20T20:42:19.988Z,-4.40
2019-01-20T20:44:49.313Z,-4.40
2019-01-20T20:47:19.263Z,-4.50
2019-01-20T20:49:48.615Z,-4.50
2019-01-20T20:52:17.979Z,-4.50
2019-01-20T20:54:47.232Z,-4.50
2019-01-20T20:57:16.615Z,-4.60
2019-01-20T20:59:46.039Z,-4.60
2019-01-20T21:02:15.463Z,-4.60
2019-01-20T21:04:44.884Z,-4.60
2019-01-20T21:07:14.299Z,-4.70
2019-01-20T21:09:43.504Z,-4.70
2019-01-20T21:12:12.937Z,-4.70
2019-01-20T21:14:43.532Z,-4.70
2019-01-20T21:17:12.829Z,-4.70
2019-01-20T21:19:42.454Z,-4.80
2019-01-20T21:22:11.820Z,-4.80
2019-01-20T21:24:41.492Z,-4.80
2019-01-20T21:27:13.020Z,-4.90
2019-01-20T21:29:44.397Z,-4.90
2019-01-20T21:32:13.999Z,-4.90
2019-01-20T21:34:43.378Z,-5.00
2019-01-20T21:37:12.717Z,-5.00
2019-01-20T21:39:42.435Z,-5.00
2019-01-20T21:42:11.753Z,-5.00
2019-01-20T21:44:41.436Z,-5.00
2019-01-20T21:47:11.188Z,-5.00
2019-01-20T21:49:40.453Z,-5.10
2019-01-20T21:52:09.826Z,-5.10
2019-01-20T21:54:39.179Z,-5.10
2019-01-20T21:57:08.535Z,-5.20
2019-01-20T21:59:38.199Z,-5.20
2019-01-20T22:02:07.574Z,-5.30
2019-01-20T22:04:37.376Z,-5.30
2019-01-20T22:07:06.727Z,-5.30
2019-01-20T22:09:35.994Z,-5.40
2019-01-20T22:12:05.393Z,-5.40
2019-01-20T22:14:35.158Z,-5.40
2019-01-20T22:17:04.562Z,-5.40
2019-01-20T22:19:34.187Z,-5.40
2019-01-20T22:22:03.514Z,-5.40
2019-01-20T22:24:32.872Z,-5.40
2019-01-20T22:27:02.186Z,-5.50
2019-01-20T22:29:32.923Z,-5.50
2019-01-20T22:32:02.299Z,-5.50
2019-01-20T22:34:31.629Z,-5.50
2019-01-20T22:37:00.958Z,-5.50
2019-01-20T22:39:30.299Z,-5.50
2019-01-20T22:41:59.748Z,-5.50
2019-01-20T22:44:29.087Z,-5.50
2019-01-20T22:47:00.385Z,-5.60
2019-01-20T22:49:29.427Z,-5.60
2019-01-20T22:52:00.494Z,-5.60
2019-01-20T22:54:30.084Z,-5.60
2019-01-20T22:56:59.362Z,-5.70
2019-01-20T22:59:28.757Z,-5.70
2019-01-20T23:01:58.016Z,-5.70
2019-01-20T23:04:27.795Z,-5.70
2019-01-20T23:06:57.147Z,-5.70
2019-01-20T23:09:26.472Z,-5.70
2019-01-20T23:11:58.759Z,-5.80
2019-01-20T23:14:29.523Z,-5.80
2019-01-20T23:16:58.843Z,-5.80
2019-01-20T23:19:28.213Z,-5.80
2019-01-20T23:21:57.469Z,-5.90
2019-01-20T23:24:26.791Z,-5.90
2019-01-20T23:26:56.181Z,-5.90
2019-01-20T23:29:25.485Z,-5.90
2019-01-20T23:31:56.756Z,-5.90
2019-01-20T23:34:25.793Z,-6.00
2019-01-20T23:36:55.046Z,-6.00
2019-01-20T23:39:24.413Z,-6.00
2019-01-20T23:41:53.828Z,-6.00
2019-01-20T23:44:23.116Z,-6.00
2019-01-20T23:46:54.430Z,-6.10
2019-01-20T23:49:23.721Z,-6.10
2019-01-20T23:51:53.045Z,-6.10
2019-01-20T23:54:22.374Z,-6.10
2019-01-20T23:56:51.643Z,-6.20
2019-01-20T23:59:20.862Z,-6.20
